Aérodrome :
LOGIN :

S'inscrire | Disclaimer

   EN    FR    IT 

 










Légende :    VFR   VFR Marginal   IFR   IFR Intensif   IFR Très Intensif
Visi : 
Plafond : 
>= 8 km
>= 3000ft
5 à 8 km
1000 à 3000 ft
1500m à 5 km
500 à 1000 ft
800 à 1500m
200 à 500 ft
< 800m
< 200 ft
Symboles :   Orages  Brouillard  Fortes neiges  Fortes précipitations  Vent > 20 kt
SIGMETs :   Divers  Orages  Givrage  Turbulence  Onde Orograph.  Cendres Volcan.






- Altitude de l'aérodrome : 238 ft
- Code IATA : FAB


EGLF - Farnborough

DERNIER METAR :
  • 140520Z AUTO 03006KT 7000 OVC004/// 17/16 Q1013

METARs EXPIRÉS :
  • 140450Z AUTO 01006KT 9999 OVC004/// 17/16 Q1013
  • 140420Z AUTO 01007KT 9999 BKN006/// BKN009/// OVC012/// 17/16 Q1013
  • 140350Z AUTO 01007KT 9999 OVC004/// 17/16 Q1012
  • 140320Z AUTO 02006KT 350V050 9999 OVC004/// 17/16 Q1012
  • 140250Z AUTO 03007KT 9999 OVC004/// 18/16 Q1013

TAF TAF EGLF
Valide du 14 à 06h jusqu'au 14 à 15h UTC


140458Z 1406/1415 01005KT 7000 BKN006
BECMG 1406/1409 9999 BKN010
BECMG 1409/1412 SCT020
PROB30
TEMPO 1409/1415 VRB15G25KT 3000 +TSRA
ATIS : +44 09063 800 400 (*282)



MET'MAP, la Météo Aéronautique d'un coup d'oeil ! - Copyright ORBIFLY Décembre 2007 - Disclaimer

ORBIFLY MET'MAP TEAM :

Programmation & Développement : Alexandra Zaïnal
Sur une idée originale de : Baudouin d'Aumeries
Assistance à la programmation : Marc-Olivier Méhu
Soutien technique & logistique : Manuel Goepfert

Contact : metmap@orbifly.com




SOURCES & CREDITS :

   NOAA